createdAt,value
2023-07-14T00:01:51.224Z,15.41
2023-07-14T00:04:26.640Z,15.37
2023-07-14T00:06:54.100Z,15.42
2023-07-14T00:09:30.225Z,15.36
2023-07-14T00:11:58.085Z,15.38
2023-07-14T00:14:25.981Z,15.45
2023-07-14T00:16:54.639Z,15.42
2023-07-14T00:19:22.293Z,15.38
2023-07-14T00:21:51.314Z,15.32
2023-07-14T00:24:20.471Z,15.30
2023-07-14T00:26:58.116Z,15.28
2023-07-14T00:29:31.521Z,15.35
2023-07-14T00:31:58.836Z,15.35
2023-07-14T00:34:26.118Z,15.33
2023-07-14T00:36:53.558Z,15.30
2023-07-14T00:39:20.875Z,15.32
2023-07-14T00:41:49.128Z,15.32
2023-07-14T00:44:16.943Z,15.32
2023-07-14T00:46:46.714Z,15.35
2023-07-14T00:49:21.809Z,15.36
2023-07-14T00:51:49.361Z,15.33
2023-07-14T00:54:27.628Z,15.43
2023-07-14T00:56:57.130Z,15.42
2023-07-14T00:59:33.384Z,15.40
2023-07-14T01:02:12.701Z,15.42
2023-07-14T01:04:42.681Z,15.36
2023-07-14T01:07:11.013Z,15.32
2023-07-14T01:09:39.054Z,15.25
2023-07-14T01:12:08.518Z,15.30
2023-07-14T01:14:41.377Z,15.30
2023-07-14T01:17:08.965Z,15.31
2023-07-14T01:20:01.092Z,15.33
2023-07-14T01:22:47.122Z,15.28
2023-07-14T01:25:40.085Z,15.30
2023-07-14T01:28:13.159Z,15.28
2023-07-14T01:30:41.184Z,15.27
2023-07-14T01:33:17.965Z,15.24
2023-07-14T01:35:52.484Z,15.21
2023-07-14T01:38:21.208Z,15.06
2023-07-14T01:40:48.901Z,15.04
2023-07-14T01:43:16.843Z,15.01
2023-07-14T01:45:52.805Z,15.02
2023-07-14T01:48:24.025Z,15.05
2023-07-14T01:50:58.092Z,14.98
2023-07-14T01:53:31.219Z,14.86
2023-07-14T01:56:03.316Z,14.88
2023-07-14T01:58:34.845Z,14.90
2023-07-14T02:01:04.595Z,14.77
2023-07-14T02:03:42.014Z,14.73
2023-07-14T02:06:09.953Z,14.66
2023-07-14T02:08:37.709Z,14.67
2023-07-14T02:11:05.296Z,14.66
2023-07-14T02:13:34.273Z,14.59
2023-07-14T02:16:02.718Z,14.59
2023-07-14T02:18:30.316Z,14.53
2023-07-14T02:20:59.481Z,14.58
2023-07-14T02:23:28.933Z,14.59
2023-07-14T02:26:22.542Z,14.60
2023-07-14T02:28:49.878Z,14.59
2023-07-14T02:31:41.817Z,14.53
2023-07-14T02:34:12.649Z,14.57
2023-07-14T02:36:55.834Z,14.48
2023-07-14T02:39:23.364Z,14.49
2023-07-14T02:41:54.734Z,14.47
2023-07-14T02:44:27.002Z,14.37
2023-07-14T02:47:11.991Z,14.35
2023-07-14T02:49:40.167Z,14.42
2023-07-14T02:52:07.480Z,14.24
2023-07-14T02:54:34.867Z,14.20
2023-07-14T02:57:02.009Z,14.18
2023-07-14T02:59:29.316Z,14.11
2023-07-14T03:01:56.576Z,14.11
2023-07-14T03:04:24.786Z,14.05
2023-07-14T03:06:52.334Z,14.01
2023-07-14T03:09:20.608Z,13.93
2023-07-14T03:11:47.999Z,14.01
2023-07-14T03:14:15.351Z,13.98
2023-07-14T03:16:42.555Z,14.02
2023-07-14T03:19:09.791Z,13.96
2023-07-14T03:21:37.452Z,14.10
2023-07-14T03:24:04.990Z,14.08
2023-07-14T03:26:32.370Z,14.08
2023-07-14T03:28:59.531Z,14.15
2023-07-14T03:31:26.725Z,14.14
2023-07-14T03:33:53.958Z,14.14
2023-07-14T03:36:25.100Z,14.18
2023-07-14T03:39:26.280Z,14.24
2023-07-14T03:41:55.031Z,14.24
2023-07-14T03:44:22.610Z,14.25
2023-07-14T03:46:50.177Z,14.23
2023-07-14T03:49:17.982Z,14.21
2023-07-14T03:51:45.139Z,14.27
2023-07-14T03:54:12.764Z,14.20
2023-07-14T03:56:40.015Z,14.21
2023-07-14T03:59:08.653Z,14.25
2023-07-14T04:01:36.038Z,14.31
2023-07-14T04:04:03.296Z,14.27
2023-07-14T04:06:30.603Z,14.33
2023-07-14T04:09:00.888Z,14.34
2023-07-14T04:11:28.706Z,14.39
2023-07-14T04:13:55.895Z,14.41
2023-07-14T04:16:25.247Z,14.41
2023-07-14T04:18:52.959Z,14.42
2023-07-14T04:21:25.714Z,14.46
2023-07-14T04:23:53.905Z,14.44
2023-07-14T04:26:22.163Z,14.36
2023-07-14T04:28:49.672Z,14.41
2023-07-14T04:31:18.158Z,14.46
2023-07-14T04:33:47.012Z,14.49
2023-07-14T04:36:15.303Z,14.51
2023-07-14T04:38:43.817Z,14.54
2023-07-14T04:41:14.317Z,14.51
2023-07-14T04:43:42.430Z,14.56
2023-07-14T04:46:10.950Z,14.63
2023-07-14T04:48:38.217Z,14.71
2023-07-14T04:51:05.406Z,14.72
2023-07-14T04:53:32.912Z,14.75
2023-07-14T04:56:02.062Z,14.80
2023-07-14T04:58:29.366Z,14.85
2023-07-14T05:00:56.606Z,14.78
2023-07-14T05:03:24.980Z,14.96
2023-07-14T05:05:52.220Z,15.08
2023-07-14T05:08:19.490Z,15.13
2023-07-14T05:10:46.806Z,15.20
2023-07-14T05:13:14.764Z,15.23
2023-07-14T05:15:46.294Z,15.22
2023-07-14T05:18:17.139Z,15.30
2023-07-14T05:20:45.253Z,15.46
2023-07-14T05:23:12.642Z,15.54
2023-07-14T05:25:40.404Z,15.60
2023-07-14T05:28:07.603Z,15.67
2023-07-14T05:30:35.148Z,15.73
2023-07-14T05:33:03.051Z,15.77
2023-07-14T05:35:30.322Z,15.83
2023-07-14T05:37:57.915Z,15.92
2023-07-14T05:40:25.220Z,15.92
2023-07-14T05:42:52.474Z,16.00
2023-07-14T05:45:20.754Z,16.08
2023-07-14T05:47:48.393Z,16.17
2023-07-14T05:50:16.726Z,16.28
2023-07-14T05:52:45.238Z,16.22
2023-07-14T05:55:12.831Z,16.37
2023-07-14T05:57:40.389Z,16.51
2023-07-14T06:00:14.623Z,16.61
2023-07-14T06:02:42.730Z,16.67
2023-07-14T06:05:11.506Z,16.75
2023-07-14T06:07:39.223Z,16.93
2023-07-14T06:10:07.825Z,17.00
2023-07-14T06:12:35.093Z,17.07
2023-07-14T06:15:02.647Z,17.11
2023-07-14T06:17:30.652Z,17.15
2023-07-14T06:19:57.901Z,17.23
2023-07-14T06:22:26.170Z,17.37
2023-07-14T06:24:53.349Z,17.28
2023-07-14T06:27:20.566Z,17.44
2023-07-14T06:29:47.959Z,17.51
2023-07-14T06:32:16.752Z,17.55
2023-07-14T06:34:44.999Z,17.64
2023-07-14T06:37:12.224Z,17.73
2023-07-14T06:39:39.563Z,17.88
2023-07-14T06:42:07.354Z,17.99
2023-07-14T06:44:34.735Z,18.02
2023-07-14T06:47:01.911Z,18.11
2023-07-14T06:49:29.521Z,18.20
2023-07-14T06:51:57.536Z,18.24
2023-07-14T06:54:24.767Z,18.32
2023-07-14T06:56:51.920Z,18.41
2023-07-14T06:59:19.283Z,18.43
2023-07-14T07:01:46.707Z,18.52
2023-07-14T07:04:15.558Z,18.60
2023-07-14T07:06:42.921Z,18.67
2023-07-14T07:09:10.393Z,18.74
2023-07-14T07:11:37.669Z,18.88
2023-07-14T07:14:04.999Z,18.98
2023-07-14T07:16:32.391Z,19.12
2023-07-14T07:18:59.963Z,19.12
2023-07-14T07:21:27.151Z,19.34
2023-07-14T07:23:54.545Z,19.40
2023-07-14T07:26:21.806Z,19.45
2023-07-14T07:28:49.044Z,19.58
2023-07-14T07:31:16.802Z,19.59
2023-07-14T07:33:44.229Z,19.71
2023-07-14T07:36:17.733Z,19.74
2023-07-14T07:38:46.610Z,19.89
2023-07-14T07:41:19.886Z,19.83
2023-07-14T07:43:47.862Z,19.93
2023-07-14T07:46:15.928Z,20.06
2023-07-14T07:48:45.453Z,20.24
2023-07-14T07:51:13.746Z,20.35
2023-07-14T07:53:41.561Z,20.46
2023-07-14T07:56:11.259Z,20.61
2023-07-14T07:58:38.802Z,20.72
2023-07-14T08:01:07.372Z,20.81
2023-07-14T08:03:37.645Z,20.93
2023-07-14T08:06:06.941Z,21.00
2023-07-14T08:08:34.443Z,21.07
2023-07-14T08:11:02.827Z,21.16
2023-07-14T08:13:31.152Z,21.08
2023-07-14T08:15:59.736Z,21.20
2023-07-14T08:18:28.045Z,21.18
2023-07-14T08:20:55.300Z,21.28
2023-07-14T08:23:25.533Z,21.38
2023-07-14T08:26:00.750Z,21.45
2023-07-14T08:28:28.864Z,21.63
2023-07-14T08:31:00.370Z,21.74
2023-07-14T08:33:28.548Z,21.89
2023-07-14T08:36:01.472Z,22.04
2023-07-14T08:38:31.926Z,22.20
2023-07-14T08:41:34.466Z,22.22
2023-07-14T08:44:06.807Z,22.48
2023-07-14T08:46:50.445Z,22.59
2023-07-14T08:49:29.224Z,22.71
2023-07-14T08:52:03.057Z,22.73
2023-07-14T08:54:50.618Z,22.69
2023-07-14T08:57:24.087Z,22.92
2023-07-14T08:59:58.333Z,23.16
2023-07-14T09:02:56.782Z,23.15
2023-07-14T09:05:29.280Z,23.45
2023-07-14T09:07:57.111Z,23.79
2023-07-14T09:10:39.101Z,23.69
2023-07-14T09:13:16.249Z,23.70
2023-07-14T09:15:44.088Z,23.67
2023-07-14T09:19:03.368Z,23.68
2023-07-14T09:21:40.463Z,23.79
2023-07-14T09:24:42.386Z,23.78
2023-07-14T09:27:15.136Z,23.77
2023-07-14T09:29:45.902Z,23.96
2023-07-14T09:32:19.318Z,24.22
2023-07-14T09:35:01.717Z,24.33
2023-07-14T09:37:43.121Z,24.45
2023-07-14T09:40:21.167Z,24.51
2023-07-14T09:42:52.173Z,24.49
2023-07-14T09:45:32.376Z,24.44
2023-07-14T09:48:12.172Z,24.32
2023-07-14T09:50:47.799Z,24.33
2023-07-14T09:53:15.171Z,24.32
2023-07-14T09:56:00.552Z,24.28
2023-07-14T09:58:30.963Z,24.34
2023-07-14T10:01:03.151Z,24.53
2023-07-14T10:04:05.773Z,24.89
2023-07-14T10:06:33.068Z,24.65
2023-07-14T10:09:23.911Z,24.88
2023-07-14T10:11:53.555Z,24.88
2023-07-14T10:14:38.326Z,24.88
2023-07-14T10:17:06.407Z,24.37
2023-07-14T10:19:40.457Z,24.41
2023-07-14T10:22:21.303Z,24.57
2023-07-14T10:24:57.141Z,25.00
2023-07-14T10:27:32.308Z,25.68
2023-07-14T10:29:59.619Z,25.84
2023-07-14T10:32:32.450Z,25.92
2023-07-14T10:35:14.859Z,26.17
2023-07-14T10:37:51.603Z,26.40
2023-07-14T10:40:23.016Z,26.30
2023-07-14T10:43:15.165Z,26.11
2023-07-14T10:45:46.716Z,26.39
2023-07-14T10:48:22.683Z,26.33
2023-07-14T10:51:24.701Z,26.22
2023-07-14T10:54:10.431Z,26.32
2023-07-14T10:56:43.328Z,26.86
2023-07-14T10:59:41.001Z,27.64
2023-07-14T11:02:11.297Z,27.56
2023-07-14T11:04:52.324Z,27.47
2023-07-14T11:07:30.091Z,27.46
2023-07-14T11:09:58.903Z,27.92
2023-07-14T11:12:38.025Z,27.53
2023-07-14T11:15:14.180Z,28.01
2023-07-14T11:17:54.537Z,28.30
2023-07-14T11:20:32.507Z,28.57
2023-07-14T11:23:28.467Z,28.32
2023-07-14T11:26:06.516Z,27.88
2023-07-14T11:29:01.640Z,27.48
2023-07-14T11:31:32.151Z,26.89
2023-07-14T11:34:14.346Z,26.55
2023-07-14T11:36:53.773Z,26.58
2023-07-14T11:39:24.928Z,27.28
2023-07-14T11:41:53.317Z,27.60
2023-07-14T11:44:24.798Z,27.92
2023-07-14T11:46:52.939Z,28.59
2023-07-14T11:49:27.618Z,28.73
2023-07-14T11:51:58.765Z,27.94
2023-07-14T11:54:41.606Z,27.41
2023-07-14T11:57:18.002Z,27.06
2023-07-14T12:00:18.528Z,26.56
2023-07-14T12:02:59.185Z,26.32
2023-07-14T12:05:33.366Z,26.49
2023-07-14T12:08:03.478Z,26.83
2023-07-14T12:10:39.676Z,26.87
2023-07-14T12:13:39.658Z,27.26
2023-07-14T12:16:16.572Z,27.62
2023-07-14T12:18:59.009Z,27.56
2023-07-14T12:21:31.091Z,27.70
2023-07-14T12:24:11.011Z,27.89
2023-07-14T12:27:00.548Z,28.14
2023-07-14T12:29:29.872Z,27.83
2023-07-14T12:31:58.157Z,27.71
2023-07-14T12:34:31.521Z,27.75
2023-07-14T12:37:01.695Z,27.64
2023-07-14T12:39:29.589Z,27.88
2023-07-14T12:41:57.561Z,28.34
2023-07-14T12:44:36.673Z,28.39
2023-07-14T12:47:04.078Z,28.62
2023-07-14T12:49:44.123Z,28.68
2023-07-14T12:52:25.462Z,29.01
2023-07-14T12:54:53.671Z,30.04
2023-07-14T12:57:22.243Z,31.16
2023-07-14T12:59:51.254Z,31.49
2023-07-14T13:02:19.320Z,31.19
2023-07-14T13:04:47.304Z,31.20
2023-07-14T13:07:21.521Z,31.51
2023-07-14T13:10:26.481Z,31.73
2023-07-14T13:12:57.758Z,31.77
2023-07-14T13:15:32.036Z,30.93
2023-07-14T13:18:24.769Z,30.15
2023-07-14T13:20:56.169Z,29.62
2023-07-14T13:23:28.974Z,29.17
2023-07-14T13:26:05.049Z,29.67
2023-07-14T13:28:41.407Z,29.33
2023-07-14T13:31:18.903Z,29.45
2023-07-14T13:33:48.690Z,29.31
2023-07-14T13:36:25.383Z,29.30
2023-07-14T13:38:52.993Z,29.57
2023-07-14T13:41:24.478Z,30.51
2023-07-14T13:43:52.376Z,31.02
2023-07-14T13:46:26.970Z,30.14
2023-07-14T13:51:26.887Z,29.25
2023-07-14T13:53:54.283Z,28.52
2023-07-14T13:56:27.628Z,28.30
2023-07-14T13:58:58.279Z,28.21
2023-07-14T14:01:28.436Z,28.52
2023-07-14T14:03:57.122Z,28.33
2023-07-14T14:06:25.226Z,28.44
2023-07-14T14:08:55.977Z,28.76
2023-07-14T14:11:23.226Z,29.74
2023-07-14T14:13:50.660Z,30.56
2023-07-14T14:16:26.307Z,31.16
2023-07-14T14:18:53.628Z,31.71
2023-07-14T14:21:20.889Z,31.73
2023-07-14T14:23:48.157Z,31.84
2023-07-14T14:26:15.811Z,32.99
2023-07-14T14:28:43.355Z,33.27
2023-07-14T14:31:13.104Z,33.27
2023-07-14T14:33:40.511Z,33.27
2023-07-14T14:36:13.039Z,33.27
2023-07-14T14:38:46.514Z,35.04
2023-07-14T14:41:32.809Z,34.88
2023-07-14T14:44:00.178Z,34.35
2023-07-14T14:46:27.734Z,33.24
2023-07-14T14:48:55.416Z,32.01
2023-07-14T14:51:23.256Z,31.96
2023-07-14T14:53:50.818Z,32.77
2023-07-14T14:56:25.746Z,33.47
2023-07-14T14:59:00.562Z,34.04
2023-07-14T15:01:39.695Z,33.62
2023-07-14T15:04:14.091Z,32.55
2023-07-14T15:06:41.935Z,32.02
2023-07-14T15:09:09.768Z,32.27
2023-07-14T15:11:37.593Z,32.70
2023-07-14T15:14:09.400Z,31.89
2023-07-14T15:16:37.875Z,31.75
2023-07-14T15:19:05.245Z,31.43
2023-07-14T15:21:32.513Z,30.74
2023-07-14T15:24:00.578Z,31.01
2023-07-14T15:26:37.792Z,30.50
2023-07-14T15:29:06.661Z,30.46
2023-07-14T15:31:34.682Z,30.95
2023-07-14T15:34:02.873Z,30.32
2023-07-14T15:36:30.254Z,30.49
2023-07-14T15:38:57.533Z,30.43
2023-07-14T15:41:24.735Z,30.23
2023-07-14T15:43:52.788Z,30.42
2023-07-14T15:46:22.587Z,31.09
2023-07-14T15:48:54.144Z,31.81
2023-07-14T15:51:30.018Z,32.49
2023-07-14T15:54:08.426Z,32.93
2023-07-14T15:56:36.999Z,33.43
2023-07-14T15:59:04.427Z,33.63
2023-07-14T16:01:32.793Z,33.19
2023-07-14T16:04:02.282Z,32.85
2023-07-14T16:06:31.494Z,32.20
2023-07-14T16:08:59.215Z,31.36
2023-07-14T16:11:33.947Z,30.70
2023-07-14T16:14:04.180Z,30.73
2023-07-14T16:16:32.042Z,31.10
2023-07-14T16:18:59.460Z,30.76
2023-07-14T16:21:32.387Z,30.98
2023-07-14T16:24:03.714Z,30.56
2023-07-14T16:26:31.525Z,30.16
2023-07-14T16:28:58.766Z,29.48
2023-07-14T16:31:26.592Z,29.45
2023-07-14T16:33:54.001Z,29.18
2023-07-14T16:36:28.121Z,28.85
2023-07-14T16:39:00.396Z,28.34
2023-07-14T16:41:27.834Z,28.08
2023-07-14T16:43:56.643Z,27.76
2023-07-14T16:46:32.102Z,27.85
2023-07-14T16:48:59.853Z,27.58
2023-07-14T16:51:29.036Z,27.42
2023-07-14T16:53:57.445Z,27.49
2023-07-14T16:56:24.705Z,27.37
2023-07-14T16:58:51.883Z,27.46
2023-07-14T17:01:21.595Z,27.39
2023-07-14T17:03:49.091Z,27.12
2023-07-14T17:06:22.269Z,27.34
2023-07-14T17:08:53.624Z,27.39
2023-07-14T17:11:22.480Z,27.41
2023-07-14T17:13:49.787Z,27.42
2023-07-14T17:16:17.358Z,27.33
2023-07-14T17:18:46.606Z,27.18
2023-07-14T17:21:14.272Z,27.26
2023-07-14T17:23:41.812Z,27.33
2023-07-14T17:26:11.781Z,27.29
2023-07-14T17:28:39.203Z,27.43
2023-07-14T17:31:06.465Z,27.60
2023-07-14T17:33:33.625Z,27.81
2023-07-14T17:36:06.535Z,28.00
2023-07-14T17:38:36.486Z,27.97
2023-07-14T17:41:03.908Z,28.16
2023-07-14T17:43:32.958Z,28.43
2023-07-14T17:46:00.350Z,28.07
2023-07-14T17:48:27.602Z,28.04
2023-07-14T17:50:55.602Z,28.51
2023-07-14T17:53:25.122Z,28.54
2023-07-14T17:55:53.073Z,28.48
2023-07-14T17:58:25.349Z,28.20
2023-07-14T18:00:54.414Z,28.29
2023-07-14T18:03:32.251Z,28.16
2023-07-14T18:06:09.402Z,28.04
2023-07-14T18:08:36.771Z,27.77
2023-07-14T18:11:15.532Z,27.77
2023-07-14T18:13:44.329Z,27.57
2023-07-14T18:16:14.701Z,27.40
2023-07-14T18:18:44.686Z,27.22
2023-07-14T18:21:13.199Z,27.16
2023-07-14T18:23:41.573Z,27.24
2023-07-14T18:26:13.502Z,27.25
2023-07-14T18:28:40.853Z,27.11
2023-07-14T18:31:14.352Z,27.05
2023-07-14T18:33:44.782Z,27.14
2023-07-14T18:36:12.118Z,27.09
2023-07-14T18:38:39.382Z,27.05
2023-07-14T18:41:16.850Z,26.93
2023-07-14T18:43:44.206Z,26.88
2023-07-14T18:46:13.521Z,26.80
2023-07-14T18:48:41.209Z,26.85
2023-07-14T18:51:24.835Z,26.70
2023-07-14T18:53:57.844Z,26.55
2023-07-14T18:56:26.896Z,26.53
2023-07-14T18:58:56.673Z,26.45
2023-07-14T19:01:24.537Z,26.35
2023-07-14T19:03:55.962Z,26.25
2023-07-14T19:06:26.338Z,26.09
2023-07-14T19:08:55.154Z,26.05
2023-07-14T19:11:25.498Z,25.99
2023-07-14T19:13:54.142Z,25.82
2023-07-14T19:16:26.652Z,25.80
2023-07-14T19:18:54.726Z,25.79
2023-07-14T19:21:25.448Z,25.80
2023-07-14T19:23:53.128Z,25.65
2023-07-14T19:26:20.344Z,25.66
2023-07-14T19:28:47.895Z,25.62
2023-07-14T19:31:22.014Z,25.51
2023-07-14T19:33:49.792Z,25.45
2023-07-14T19:36:18.494Z,25.34
2023-07-14T19:38:46.633Z,25.29
2023-07-14T19:41:18.502Z,25.24
2023-07-14T19:43:49.801Z,25.18
2023-07-14T19:46:19.834Z,25.06
2023-07-14T19:48:47.504Z,25.01
2023-07-14T19:51:21.781Z,25.00
2023-07-14T19:53:50.677Z,24.87
2023-07-14T19:56:25.070Z,24.81
2023-07-14T19:58:54.754Z,24.75
2023-07-14T20:01:22.421Z,24.71
2023-07-14T20:03:50.584Z,24.62
2023-07-14T20:06:24.833Z,24.59
2023-07-14T20:08:58.394Z,24.55
2023-07-14T20:11:27.476Z,24.50
2023-07-14T20:13:55.331Z,24.39
2023-07-14T20:16:23.368Z,24.23
2023-07-14T20:18:51.052Z,24.16
2023-07-14T20:21:24.839Z,24.10
2023-07-14T20:23:52.370Z,24.06
2023-07-14T20:26:19.790Z,24.05
2023-07-14T20:28:49.093Z,23.95
2023-07-14T20:31:19.916Z,23.88
2023-07-14T20:33:49.057Z,23.80
2023-07-14T20:36:19.838Z,23.85
2023-07-14T20:38:49.133Z,23.86
2023-07-14T20:41:24.083Z,23.75
2023-07-14T20:43:52.686Z,23.74
2023-07-14T20:46:27.338Z,23.71
2023-07-14T20:49:10.763Z,23.64
2023-07-14T20:51:43.717Z,23.46
2023-07-14T20:54:14.433Z,23.41
2023-07-14T20:56:41.909Z,23.48
2023-07-14T20:59:09.277Z,23.56
2023-07-14T21:01:37.913Z,23.51
2023-07-14T21:04:20.940Z,23.51
2023-07-14T21:06:48.254Z,23.50
2023-07-14T21:09:15.399Z,23.52
2023-07-14T21:11:43.989Z,23.41
2023-07-14T21:14:11.859Z,23.38
2023-07-14T21:16:42.084Z,23.42
2023-07-14T21:19:10.307Z,23.40
2023-07-14T21:21:38.410Z,23.35
2023-07-14T21:24:20.140Z,23.33
2023-07-14T21:26:47.733Z,23.34
2023-07-14T21:29:19.077Z,23.26
2023-07-14T21:31:46.963Z,23.18
2023-07-14T21:34:23.101Z,23.17
2023-07-14T21:36:50.759Z,23.05
2023-07-14T21:39:24.415Z,23.02
2023-07-14T21:41:53.260Z,23.08
2023-07-14T21:44:21.066Z,23.12
2023-07-14T21:46:48.530Z,23.11
2023-07-14T21:49:18.996Z,23.18
2023-07-14T21:51:47.058Z,23.15
2023-07-14T21:54:16.850Z,23.11
2023-07-14T21:56:46.826Z,23.08
2023-07-14T21:59:17.871Z,22.91
2023-07-14T22:01:49.045Z,22.81
2023-07-14T22:04:24.424Z,22.78
2023-07-14T22:06:52.770Z,22.76
2023-07-14T22:09:19.968Z,22.73
2023-07-14T22:11:47.804Z,22.74
2023-07-14T22:14:16.903Z,22.80
2023-07-14T22:16:45.040Z,22.73
2023-07-14T22:19:14.451Z,22.75
